Карточка аэропорта UMII

Внимание!
Информация на этой странице в стадии наполнения.
Если вы не увидели какой-то информации, или заметили неточность - пожалуйста сообщите нам!
Спасибо!
Команда RU-STAFF
Название аэропортаVitebsk
Название аэропорта (англ.)Vitebsk
Превышение682 ft. (207.9 m.)
Координаты55°7.5839999999998', 30°20.982'
Высота перехода6000 ft
Эшелон переходаFL80; QNH<977hPa - FL90
Коды ответчика0033; 6230-6277
Зона ОрВДМинск РПИ (UMMV)
Данные METARUMII 251600Z 16005G08MPS 4500 -DZ BR OVC004 02/02 Q1017 TEMPO 2000 DZ BKN003 RMK QBB130
Проноз погоды (TAF)
NOTAMshow/hide NOTAM
AWOS   TABLE

Информация о ВПП

ВПП Длина ВПП (м.) Покрытие Курс ВПП Частота ILS
232606Цементобетон233111.9
052606Цементобетон53 

Диспетчерские позиции




Спутниковое изображение